Argyle, Missouri
Current Conditions -  °F | °C
As of 11:46 PM on Thursday 30 Oct 2014 (Local Time) from KVIH Reporting Station
Haze Haze  
Wind Chill: 42°   Ceiling: Unl
Heat Index: 42°   Visibility: 1mi
Dew Point: 40°   Wind: 0mph
Humidity: 92%   Direction: NA
Pressure: 30.04"   Gusts: NA
Location:  38.29°N, 92.03°W
Report Text: KVIH 310446Z AUTO 00000KT 1SM BR FEW090 06/04 A3004 RMK AO2 T00560044
Loading
Personal Weather Stations






























Interactive Weather Map
Tropical Storm Tracking
New forecast layout! Learn more

10-Day Weather Forecast

Advertisements
Track Severe Weather on mobile